Time,TemperatureF,DewpointF,PressureIn,WindDirection,WindDirectionDegrees,WindSpeedMPH,WindSpeedGustMPH,Humidity,HourlyPrecipIn,Conditions,Clouds,dailyrainin,SoftwareType,DateUTC
2013-03-18 00:03:00,68.0,47.0,29.71,ENE,61,1.0,6.0,47,0.00,,,-99.99,,2013-03-18 05:03:00,
2013-03-18 00:12:00,68.0,47.0,29.71,ENE,61,1.0,6.0,47,0.00,,,-99.99,,2013-03-18 05:12:00,
2013-03-18 00:22:00,66.0,47.0,29.72,NE,43,2.0,4.0,51,0.00,,,-99.99,,2013-03-18 05:22:00,
2013-03-18 00:32:00,66.0,48.0,29.72,North,5,0.0,3.0,53,0.00,,,-99.99,,2013-03-18 05:32:00,
2013-03-18 00:43:00,66.0,48.0,29.72,North,5,0.0,3.0,53,0.00,,,-99.99,,2013-03-18 05:43:00,
2013-03-18 00:52:00,66.0,48.0,29.72,North,5,0.0,3.0,53,0.00,,,-99.99,,2013-03-18 05:52:00,
2013-03-18 01:02:00,66.0,49.0,29.73,ESE,108,2.0,4.0,55,0.00,,,-99.99,,2013-03-18 06:02:00,
2013-03-18 01:12:00,66.0,49.0,29.73,ESE,108,2.0,4.0,55,0.00,,,-99.99,,2013-03-18 06:12:00,
2013-03-18 01:22:00,66.0,49.0,29.73,ESE,108,2.0,4.0,55,0.00,,,-99.99,,2013-03-18 06:22:00,
2013-03-18 01:32:00,66.0,50.0,29.73,SE,142,1.0,6.0,56,0.00,,,-99.99,,2013-03-18 06:32:00,
2013-03-18 01:42:00,66.0,50.0,29.73,SE,142,1.0,6.0,56,0.00,,,-99.99,,2013-03-18 06:42:00,
2013-03-18 01:52:00,65.0,49.0,29.73,SSE,162,1.0,5.0,57,0.00,,,-99.99,,2013-03-18 06:52:00,
2013-03-18 02:02:00,65.0,49.0,29.73,SSE,162,1.0,5.0,57,0.00,,,-99.99,,2013-03-18 07:02:00,
2013-03-18 02:12:00,65.0,49.0,29.73,SSE,162,1.0,5.0,57,0.00,,,-99.99,,2013-03-18 07:12:00,
2013-03-18 02:22:00,61.0,48.0,29.73,SW,235,0.0,2.0,62,0.00,,,-99.99,,2013-03-18 07:22:00,
2013-03-18 02:32:00,59.0,47.0,29.73,NW,323,0.0,5.0,64,0.00,,,-99.99,,2013-03-18 07:32:00,
2013-03-18 02:43:00,59.0,47.0,29.73,NW,323,0.0,5.0,64,0.00,,,-99.99,,2013-03-18 07:43:00,
2013-03-18 02:52:00,59.0,47.0,29.74,SE,135,0.0,2.0,64,0.00,,,-99.99,,2013-03-18 07:52:00,
2013-03-18 03:02:00,59.0,47.0,29.74,SE,135,0.0,2.0,64,0.00,,,-99.99,,2013-03-18 08:02:00,
2013-03-18 03:12:00,59.0,47.0,29.74,SE,135,0.0,2.0,64,0.00,,,-99.99,,2013-03-18 08:12:00,
2013-03-18 03:21:00,59.0,47.0,29.75,North,9,1.0,2.0,64,0.00,,,-99.99,,2013-03-18 08:21:00,
2013-03-18 03:22:00,59.0,47.0,29.74,SE,135,0.0,2.0,64,0.00,,,-99.99,,2013-03-18 08:22:00,
2013-03-18 03:32:00,59.0,47.0,29.74,SE,135,0.0,2.0,64,0.00,,,-99.99,,2013-03-18 08:32:00,
2013-03-18 03:53:00,59.0,47.0,29.75,North,9,1.0,2.0,64,0.00,,,-99.99,,2013-03-18 08:53:00,
2013-03-18 04:02:00,59.0,47.0,29.75,North,9,1.0,2.0,64,0.00,,,-99.99,,2013-03-18 09:02:00,
2013-03-18 04:12:00,59.0,47.0,29.75,North,9,1.0,2.0,64,0.00,,,-99.99,,2013-03-18 09:12:00,
2013-03-18 04:33:00,60.0,49.0,29.74,North,1,0.0,2.0,68,0.00,,,-99.99,,2013-03-18 09:33:00,
2013-03-18 04:43:00,60.0,49.0,29.74,North,1,0.0,2.0,68,0.00,,,-99.99,,2013-03-18 09:43:00,
2013-03-18 04:53:00,60.0,49.0,29.74,North,1,0.0,2.0,68,0.00,,,-99.99,,2013-03-18 09:53:00,
2013-03-18 05:03:00,61.0,52.0,29.75,WSW,240,1.0,4.0,72,0.00,,,-99.99,,2013-03-18 10:03:00,
2013-03-18 05:12:00,61.0,52.0,29.75,WSW,240,1.0,4.0,72,0.00,,,-99.99,,2013-03-18 10:12:00,
2013-03-18 05:23:00,60.0,51.0,29.75,SW,232,2.0,4.0,73,0.00,,,-99.99,,2013-03-18 10:23:00,
2013-03-18 05:33:00,60.0,51.0,29.75,SW,232,2.0,4.0,73,0.00,,,-99.99,,2013-03-18 10:33:00,
2013-03-18 05:42:00,60.0,51.0,29.75,SW,232,2.0,4.0,73,0.00,,,-99.99,,2013-03-18 10:42:00,
2013-03-18 05:52:00,60.0,53.0,29.75,SW,222,1.0,3.0,77,0.00,,,-99.99,,2013-03-18 10:52:00,
2013-03-18 06:03:00,60.0,53.0,29.75,SW,222,1.0,2.0,78,0.00,,,-99.99,,2013-03-18 11:03:00,
2013-03-18 06:13:00,60.0,53.0,29.75,SW,222,1.0,2.0,78,0.00,,,-99.99,,2013-03-18 11:13:00,
2013-03-18 06:22:00,59.0,53.0,29.76,SW,232,0.0,3.0,81,0.00,,,-99.99,,2013-03-18 11:22:00,
2013-03-18 06:32:00,59.0,53.0,29.76,SW,232,0.0,3.0,81,0.00,,,-99.99,,2013-03-18 11:32:00,
2013-03-18 06:42:00,59.0,53.0,29.76,SW,232,0.0,3.0,81,0.00,,,-99.99,,2013-03-18 11:42:00,
2013-03-18 06:52:00,59.0,53.0,29.76,SW,232,0.0,3.0,81,0.00,,,-99.99,,2013-03-18 11:52:00,
2013-03-18 07:02:00,59.0,53.0,29.77,SW,221,1.0,2.0,80,0.00,,,-99.99,,2013-03-18 12:02:00,
2013-03-18 07:12:00,59.0,53.0,29.77,SW,221,1.0,2.0,80,0.00,,,-99.99,,2013-03-18 12:12:00,
2013-03-18 07:22:00,59.0,53.0,29.78,WNW,290,3.0,5.0,81,0.00,,,-99.99,,2013-03-18 12:22:00,
2013-03-18 07:33:00,59.0,-99.9,-100.00,SW,234,3.0,5.0,-999,-99.99,,,-99.99,,2013-03-18 12:33:00,
2013-03-18 07:43:00,59.0,-99.9,-100.00,SW,234,3.0,5.0,-999,-99.99,,,-99.99,,2013-03-18 12:43:00,
2013-03-18 07:52:00,58.0,51.0,29.79,West,259,3.0,4.0,78,0.00,,,-99.99,,2013-03-18 12:52:00,
2013-03-18 08:02:00,58.0,51.0,29.79,West,259,3.0,4.0,78,0.00,,,-99.99,,2013-03-18 13:02:00,
2013-03-18 08:12:00,58.0,51.0,29.79,West,259,3.0,4.0,78,0.00,,,-99.99,,2013-03-18 13:12:00,
2013-03-18 08:22:00,58.0,51.0,29.79,West,259,3.0,4.0,78,0.00,,,-99.99,,2013-03-18 13:22:00,
2013-03-18 08:33:00,58.0,-99.9,-100.00,West,281,2.0,6.0,-999,0.00,,,-99.99,,2013-03-18 13:33:00,
2013-03-18 08:43:00,58.0,-99.9,-100.00,West,281,2.0,6.0,-999,0.00,,,-99.99,,2013-03-18 13:43:00,
2013-03-18 08:52:00,58.0,-99.9,-100.00,West,281,2.0,6.0,-999,0.00,,,-99.99,,2013-03-18 13:52:00,
2013-03-18 09:02:00,60.0,49.0,29.81,WSW,255,2.0,6.0,68,0.00,,,-99.99,,2013-03-18 14:02:00,
2013-03-18 09:12:00,60.0,49.0,29.81,WSW,255,2.0,6.0,68,0.00,,,-99.99,,2013-03-18 14:12:00,
2013-03-18 09:22:00,62.0,49.0,29.81,WSW,239,4.0,6.0,62,0.00,,,-99.99,,2013-03-18 14:22:00,
2013-03-18 09:32:00,65.0,48.0,29.81,West,276,3.0,5.0,55,0.00,,,-99.99,,2013-03-18 14:32:00,
2013-03-18 09:42:00,65.0,48.0,29.81,West,276,3.0,5.0,55,0.00,,,-99.99,,2013-03-18 14:42:00,
2013-03-18 09:52:00,67.0,48.0,29.82,SW,225,5.0,7.0,51,0.00,,,-99.99,,2013-03-18 14:52:00,
2013-03-18 10:02:00,68.0,46.0,29.83,West,273,3.0,8.0,46,0.00,,,-99.99,,2013-03-18 15:02:00,
2013-03-18 10:12:00,68.0,46.0,29.83,West,273,3.0,8.0,46,0.00,,,-99.99,,2013-03-18 15:12:00,
2013-03-18 10:22:00,73.0,31.0,29.84,WNW,293,14.0,18.0,21,0.00,,,-99.99,,2013-03-18 15:22:00,
2013-03-18 10:33:00,74.0,30.0,29.85,NW,323,14.0,18.0,20,0.00,,,-99.99,,2013-03-18 15:33:00,
2013-03-18 10:42:00,74.0,30.0,29.85,NW,323,14.0,18.0,20,0.00,,,-99.99,,2013-03-18 15:42:00,
2013-03-18 10:52:00,74.0,33.0,29.85,NW,307,8.0,21.0,22,0.00,,,-99.99,,2013-03-18 15:52:00,
2013-03-18 11:03:00,74.0,33.0,29.85,NW,307,8.0,21.0,22,0.00,,,-99.99,,2013-03-18 16:03:00,
2013-03-18 11:12:00,74.0,33.0,29.85,NW,307,8.0,21.0,22,0.00,,,-99.99,,2013-03-18 16:12:00,
2013-03-18 11:22:00,74.0,33.0,29.85,NW,307,8.0,21.0,22,0.00,,,-99.99,,2013-03-18 16:22:00,
2013-03-18 11:33:00,74.0,35.0,29.87,WNW,293,11.0,17.0,24,0.00,,,-99.99,,2013-03-18 16:33:00,
2013-03-18 11:42:00,74.0,35.0,29.87,WNW,293,11.0,17.0,24,0.00,,,-99.99,,2013-03-18 16:42:00,
2013-03-18 11:53:00,74.0,35.0,29.88,NNE,15,3.0,13.0,24,0.00,,,-99.99,,2013-03-18 16:53:00,
2013-03-18 12:02:00,75.0,36.0,29.88,NNW,335,7.0,13.0,24,0.00,,,-99.99,,2013-03-18 17:02:00,
2013-03-18 12:12:00,75.0,36.0,29.88,NNW,335,7.0,13.0,24,0.00,,,-99.99,,2013-03-18 17:12:00,
2013-03-18 12:22:00,75.0,37.0,29.88,NNE,30,3.0,16.0,25,0.00,,,-99.99,,2013-03-18 17:22:00,
2013-03-18 12:32:00,75.0,37.0,29.89,North,11,9.0,13.0,25,0.00,,,-99.99,,2013-03-18 17:32:00,
2013-03-18 12:42:00,75.0,37.0,29.89,North,11,9.0,13.0,25,0.00,,,-99.99,,2013-03-18 17:42:00,
2013-03-18 12:52:00,75.0,37.0,29.89,North,11,9.0,13.0,25,0.00,,,-99.99,,2013-03-18 17:52:00,
2013-03-18 13:02:00,75.0,37.0,29.89,North,11,9.0,13.0,25,0.00,,,-99.99,,2013-03-18 18:02:00,
2013-03-18 13:12:00,75.0,37.0,29.89,North,11,9.0,13.0,25,0.00,,,-99.99,,2013-03-18 18:12:00,
2013-03-18 13:52:00,76.0,41.0,29.88,NW,319,4.0,13.0,28,0.00,,,-99.99,,2013-03-18 18:52:00,
2013-03-18 14:02:00,76.0,39.0,29.88,NNW,338,9.0,14.0,26,0.00,,,-99.99,,2013-03-18 19:02:00,
2013-03-18 14:12:00,76.0,39.0,29.88,NNW,338,9.0,14.0,26,0.00,,,-99.99,,2013-03-18 19:12:00,
2013-03-18 14:22:00,77.0,39.0,29.87,NW,319,6.0,13.0,26,0.00,,,-99.99,,2013-03-18 19:22:00,
2013-03-18 14:33:00,77.0,39.0,29.86,NNW,333,7.0,18.0,26,0.00,,,-99.99,,2013-03-18 19:33:00,
2013-03-18 14:42:00,77.0,39.0,29.86,NNW,333,7.0,18.0,26,0.00,,,-99.99,,2013-03-18 19:42:00,
2013-03-18 14:52:00,77.0,39.0,29.86,NNW,333,7.0,18.0,26,0.00,,,-99.99,,2013-03-18 19:52:00,
2013-03-18 15:02:00,78.0,41.0,29.85,NNW,327,6.0,14.0,27,0.00,,,-99.99,,2013-03-18 20:02:00,
2013-03-18 15:12:00,78.0,41.0,29.85,NNW,327,6.0,14.0,27,0.00,,,-99.99,,2013-03-18 20:12:00,
2013-03-18 15:23:00,78.0,39.0,29.85,NNW,340,10.0,13.0,25,0.00,,,-99.99,,2013-03-18 20:23:00,
2013-03-18 15:33:00,78.0,41.0,29.85,NNW,330,12.0,13.0,27,0.00,,,-99.99,,2013-03-18 20:33:00,
2013-03-18 15:42:00,78.0,41.0,29.85,NNW,330,12.0,13.0,27,0.00,,,-99.99,,2013-03-18 20:42:00,
2013-03-18 15:52:00,78.0,39.0,29.84,North,352,6.0,16.0,25,0.00,,,-99.99,,2013-03-18 20:52:00,
2013-03-18 16:02:00,80.0,41.0,29.84,North,358,5.0,13.0,25,0.00,,,-99.99,,2013-03-18 21:02:00,
2013-03-18 16:12:00,80.0,41.0,29.84,North,358,5.0,13.0,25,0.00,,,-99.99,,2013-03-18 21:12:00,
2013-03-18 16:22:00,79.0,40.0,29.84,NW,323,11.0,16.0,25,0.00,,,-99.99,,2013-03-18 21:22:00,
2013-03-18 16:32:00,79.0,39.0,29.84,NNW,328,10.0,14.0,24,0.00,,,-99.99,,2013-03-18 21:32:00,
2013-03-18 16:42:00,79.0,39.0,29.84,NNW,328,10.0,14.0,24,0.00,,,-99.99,,2013-03-18 21:42:00,
2013-03-18 16:53:00,79.0,39.0,29.84,NNW,328,10.0,14.0,24,0.00,,,-99.99,,2013-03-18 21:53:00,
2013-03-18 17:03:00,79.0,39.0,29.84,NNW,328,10.0,14.0,24,0.00,,,-99.99,,2013-03-18 22:03:00,
2013-03-18 17:13:00,79.0,39.0,29.84,NNW,328,10.0,14.0,24,0.00,,,-99.99,,2013-03-18 22:13:00,
2013-03-18 17:23:00,77.0,40.0,29.86,North,354,11.0,15.0,27,0.00,,,-99.99,,2013-03-18 22:23:00,
2013-03-18 17:33:00,77.0,40.0,29.86,North,354,11.0,15.0,27,0.00,,,-99.99,,2013-03-18 22:33:00,
2013-03-18 17:42:00,77.0,40.0,29.86,North,354,11.0,15.0,27,0.00,,,-99.99,,2013-03-18 22:42:00,
2013-03-18 17:52:00,75.0,41.0,29.87,NNW,342,5.0,14.0,29,0.00,,,-99.99,,2013-03-18 22:52:00,
2013-03-18 18:02:00,75.0,41.0,29.87,NNW,342,5.0,14.0,29,0.00,,,-99.99,,2013-03-18 23:02:00,
2013-03-18 18:12:00,75.0,41.0,29.87,NNW,342,5.0,14.0,29,0.00,,,-99.99,,2013-03-18 23:12:00,
2013-03-18 18:22:00,75.0,40.0,29.88,NNW,347,8.0,12.0,28,0.00,,,-99.99,,2013-03-18 23:22:00,
2013-03-18 18:32:00,75.0,40.0,29.88,NNW,347,8.0,12.0,28,0.00,,,-99.99,,2013-03-18 23:32:00,
2013-03-18 18:42:00,75.0,40.0,29.88,NNW,347,8.0,12.0,28,0.00,,,-99.99,,2013-03-18 23:42:00,
2013-03-18 19:02:00,74.0,40.0,29.88,North,11,6.0,12.0,29,0.00,,,-99.99,,2013-03-19 00:02:00,
2013-03-18 19:12:00,74.0,40.0,29.88,North,11,6.0,12.0,29,0.00,,,-99.99,,2013-03-19 00:12:00,
2013-03-18 19:22:00,74.0,41.0,29.90,NNW,347,8.0,11.0,31,0.00,,,-99.99,,2013-03-19 00:22:00,
2013-03-18 19:32:00,74.0,41.0,29.91,NNW,346,4.0,10.0,31,0.00,,,-99.99,,2013-03-19 00:32:00,
2013-03-18 19:42:00,74.0,41.0,29.91,NNW,346,4.0,10.0,31,0.00,,,-99.99,,2013-03-19 00:42:00,
2013-03-18 19:52:00,74.0,41.0,29.91,NNW,346,4.0,10.0,31,0.00,,,-99.99,,2013-03-19 00:52:00,
2013-03-18 20:02:00,71.0,40.0,29.91,NNE,25,3.0,4.0,33,0.00,,,-99.99,,2013-03-19 01:02:00,
2013-03-18 20:12:00,71.0,40.0,29.91,NNE,25,3.0,4.0,33,0.00,,,-99.99,,2013-03-19 01:12:00,
2013-03-18 20:22:00,70.0,40.0,29.92,NNE,23,2.0,4.0,34,0.00,,,-99.99,,2013-03-19 01:22:00,
2013-03-18 20:32:00,68.0,40.0,29.91,NE,39,3.0,6.0,36,0.00,,,-99.99,,2013-03-19 01:32:00,
2013-03-18 20:42:00,68.0,40.0,29.91,NE,39,3.0,6.0,36,0.00,,,-99.99,,2013-03-19 01:42:00,
2013-03-18 20:52:00,68.0,41.0,29.91,NE,44,2.0,5.0,37,0.00,,,-99.99,,2013-03-19 01:52:00,
2013-03-18 21:02:00,68.0,41.0,29.93,NE,52,2.0,4.0,37,0.00,,,-99.99,,2013-03-19 02:02:00,
2013-03-18 21:12:00,68.0,41.0,29.93,NE,52,2.0,4.0,37,0.00,,,-99.99,,2013-03-19 02:12:00,
2013-03-18 21:22:00,67.0,41.0,29.92,ENE,63,4.0,8.0,38,0.00,,,-99.99,,2013-03-19 02:22:00,
2013-03-18 21:32:00,66.0,40.0,29.93,ENE,61,2.0,7.0,39,0.00,,,-99.99,,2013-03-19 02:32:00,
2013-03-18 21:42:00,66.0,40.0,29.93,ENE,61,2.0,7.0,39,0.00,,,-99.99,,2013-03-19 02:42:00,
2013-03-18 21:52:00,65.0,40.0,29.93,NE,56,3.0,5.0,40,0.00,,,-99.99,,2013-03-19 02:52:00,
2013-03-18 22:02:00,65.0,41.0,29.94,ENE,60,3.0,6.0,42,0.00,,,-99.99,,2013-03-19 03:02:00,
2013-03-18 22:12:00,65.0,41.0,29.94,ENE,60,3.0,6.0,42,0.00,,,-99.99,,2013-03-19 03:12:00,
2013-03-18 22:22:00,65.0,42.0,29.94,NE,54,5.0,7.0,43,0.00,,,-99.99,,2013-03-19 03:22:00,
2013-03-18 22:32:00,64.0,42.0,29.94,ENE,65,5.0,8.0,45,0.00,,,-99.99,,2013-03-19 03:32:00,
2013-03-18 22:43:00,64.0,42.0,29.94,ENE,65,5.0,8.0,45,0.00,,,-99.99,,2013-03-19 03:43:00,
2013-03-18 22:54:00,64.0,42.0,29.94,ENE,65,5.0,8.0,45,0.00,,,-99.99,,2013-03-19 03:54:00,
2013-03-18 23:03:00,64.0,42.0,29.94,ENE,65,5.0,8.0,45,0.00,,,-99.99,,2013-03-19 04:03:00,
2013-03-18 23:13:00,64.0,42.0,29.94,ENE,65,5.0,8.0,45,0.00,,,-99.99,,2013-03-19 04:13:00,
2013-03-18 23:23:00,62.0,43.0,29.95,ENE,58,6.0,8.0,49,0.00,,,-99.99,,2013-03-19 04:23:00,
2013-03-18 23:33:00,61.0,42.0,29.96,NE,44,4.0,7.0,50,0.00,,,-99.99,,2013-03-19 04:33:00,
2013-03-18 23:43:00,61.0,42.0,29.96,NE,44,4.0,7.0,50,0.00,,,-99.99,,2013-03-19 04:43:00,
2013-03-18 23:52:00,61.0,42.0,29.96,NE,44,4.0,7.0,50,0.00,,,-99.99,,2013-03-19 04:52:00,